Time;durP1;ratioP1;P1;durP2;ratioP2;P2;SDS_P1;SDS_P2;PMS_P1;PMS_P2;Temp;Humidity;BMP_temperature;BMP_pressure;BME280_temperature;BME280_humidity;BME280_pressure;Samples;Min_cycle;Max_cycle;Signal;HPM_P1;HPM_P2
2021/07/12 04:02:37;;;;;;;19.50;17.80;;;17.40;99.90;;;;;;5039900;23;21046;-68
2021/07/12 04:05:05;;;;;;;20.17;18.27;;;17.40;99.90;;;;;;4973874;28;20459;-67
2021/07/12 04:07:31;;;;;;;20.23;18.23;;;17.40;99.90;;;;;;5005585;28;20471;-67
2021/07/12 04:09:58;;;;;;;18.53;16.73;;;17.40;99.90;;;;;;4992345;28;20958;-67
2021/07/12 04:12:25;;;;;;;20.27;18.37;;;17.50;99.90;;;;;;4990255;28;21141;-67
2021/07/12 04:14:53;;;;;;;18.87;17.27;;;17.60;99.90;;;;;;4993067;28;20513;-67
2021/07/12 04:17:20;;;;;;;19.17;17.13;;;17.60;99.90;;;;;;4990761;28;20529;-67
2021/07/12 04:19:49;;;;;;;19.80;18.00;;;17.60;99.90;;;;;;4993677;28;20494;-68
2021/07/12 04:22:16;;;;;;;20.43;18.53;;;17.70;99.90;;;;;;4981508;28;20484;-66
2021/07/12 04:24:43;;;;;;;18.50;16.80;;;17.70;99.90;;;;;;4973050;28;20522;-68
2021/07/12 04:27:09;;;;;;;19.67;17.97;;;17.80;99.90;;;;;;4975953;28;20468;-67
2021/07/12 04:29:36;;;;;;;19.00;17.10;;;17.90;99.90;;;;;;4973632;28;20464;-67
2021/07/12 04:32:03;;;;;;;15.23;13.77;;;18.40;99.90;;;;;;4975597;28;20487;-67
2021/07/12 04:34:30;;;;;;;13.80;12.40;;;19.00;99.90;;;;;;4973922;28;20471;-66
2021/07/12 04:36:58;;;;;;;12.73;11.50;;;19.50;99.90;;;;;;4975951;28;20492;-68
2021/07/12 04:39:26;;;;;;;12.43;11.50;;;20.00;99.90;;;;;;4972855;28;20535;-66
2021/07/12 04:41:54;;;;;;;11.60;10.90;;;20.60;99.90;;;;;;4975307;28;20905;-67
2021/07/12 04:44:21;;;;;;;11.47;10.80;;;21.10;99.90;;;;;;4976908;28;20549;-66
2021/07/12 04:46:47;;;;;;;10.63;9.73;;;21.70;99.90;;;;;;4988543;28;20466;-67
2021/07/12 04:49:14;;;;;;;11.53;10.77;;;22.10;99.90;;;;;;4973320;28;21011;-66
2021/07/12 04:51:41;;;;;;;10.13;9.43;;;22.40;99.90;;;;;;4975781;28;20488;-67
2021/07/12 04:54:09;;;;;;;11.40;10.77;;;22.80;99.90;;;;;;4974142;28;20526;-65
2021/07/12 04:56:36;;;;;;;11.27;10.70;;;23.20;99.90;;;;;;4976985;28;20502;-66
2021/07/12 04:59:05;;;;;;;10.87;10.27;;;23.50;99.90;;;;;;4974393;28;20470;-67
2021/07/12 05:01:33;;;;;;;11.43;10.63;;;23.80;99.90;;;;;;4973034;28;20491;-66
2021/07/12 05:04:01;;;;;;;11.50;10.73;;;24.00;99.90;;;;;;4982088;28;20865;-66
2021/07/12 05:06:28;;;;;;;10.03;9.50;;;23.90;99.90;;;;;;4992515;28;20562;-68
2021/07/12 05:08:55;;;;;;;11.90;11.10;;;24.20;99.90;;;;;;4987183;28;20521;-68
2021/07/12 05:11:22;;;;;;;10.57;9.80;;;24.60;99.90;;;;;;4992240;28;20559;-68
2021/07/12 05:13:49;;;;;;;11.00;10.20;;;25.00;99.90;;;;;;4975116;28;20461;-69
2021/07/12 05:16:16;;;;;;;11.00;10.40;;;25.30;99.90;;;;;;4977189;28;20589;-69
2021/07/12 05:18:43;;;;;;;10.33;9.80;;;25.50;99.90;;;;;;4976331;28;20467;-69
2021/07/12 05:21:10;;;;;;;10.87;9.93;;;25.40;99.90;;;;;;4976788;28;20491;-69
2021/07/12 05:23:37;;;;;;;10.00;9.40;;;25.50;99.90;;;;;;4975256;28;20483;-66
2021/07/12 05:26:04;;;;;;;10.17;9.67;;;25.70;99.90;;;;;;4977210;28;20464;-68
2021/07/12 05:28:33;;;;;;;10.70;10.10;;;25.90;99.90;;;;;;4976093;28;20964;-66
2021/07/12 05:30:59;;;;;;;10.07;9.27;;;26.00;99.90;;;;;;4979880;28;20528;-66
2021/07/12 05:33:26;;;;;;;9.63;9.13;;;26.20;99.90;;;;;;4989880;28;20458;-65
2021/07/12 05:35:53;;;;;;;9.80;9.20;;;26.40;99.90;;;;;;4977451;28;20469;-67
2021/07/12 05:38:19;;;;;;;9.70;9.10;;;26.40;99.90;;;;;;4989990;28;20621;-67
2021/07/12 05:40:46;;;;;;;10.40;9.90;;;26.40;99.90;;;;;;4986961;28;21053;-67
2021/07/12 05:43:13;;;;;;;10.37;9.57;;;26.40;99.90;;;;;;4980236;28;21058;-67
2021/07/12 05:45:41;;;;;;;9.97;9.43;;;26.60;99.90;;;;;;4996099;28;20468;-67
2021/07/12 05:48:08;;;;;;;9.93;9.43;;;26.80;99.90;;;;;;4980200;28;20480;-68
2021/07/12 05:50:35;;;;;;;10.53;9.93;;;26.80;99.90;;;;;;4977201;28;20490;-67
2021/07/12 05:53:02;;;;;;;11.10;10.43;;;26.80;99.90;;;;;;4978821;28;20530;-68
2021/07/12 05:55:29;;;;;;;10.07;9.57;;;26.80;99.90;;;;;;4982354;28;20471;-66
2021/07/12 05:57:55;;;;;;;10.43;9.73;;;26.60;99.90;;;;;;4976448;28;20763;-66
2021/07/12 06:00:22;;;;;;;11.40;10.77;;;26.50;99.90;;;;;;4975787;28;20504;-66
2021/07/12 06:02:50;;;;;;;11.07;10.37;;;26.60;99.90;;;;;;4975734;28;20478;-67
2021/07/12 06:05:17;;;;;;;9.67;9.27;;;26.90;99.90;;;;;;4975902;28;20522;-67
2021/07/12 06:07:44;;;;;;;9.97;9.33;;;27.00;99.90;;;;;;4976262;28;20468;-67
2021/07/12 06:10:12;;;;;;;10.30;9.90;;;27.10;99.90;;;;;;4974893;28;20498;-67
2021/07/12 06:12:40;;;;;;;9.73;9.23;;;27.20;99.90;;;;;;4975596;28;20468;-67
2021/07/12 06:15:08;;;;;;;9.20;8.70;;;27.20;99.90;;;;;;4973170;28;20461;-68
2021/07/12 06:17:35;;;;;;;10.50;10.00;;;27.40;99.90;;;;;;4975426;28;20466;-67
2021/07/12 06:20:04;;;;;;;9.40;9.00;;;27.70;99.90;;;;;;4982545;28;20834;-67
2021/07/12 06:22:30;;;;;;;9.87;9.47;;;28.00;99.90;;;;;;4976053;28;20490;-67
2021/07/12 06:24:57;;;;;;;9.70;9.10;;;28.30;99.90;;;;;;4980582;28;20463;-67
2021/07/12 06:27:24;;;;;;;10.50;9.70;;;28.40;99.90;;;;;;4980773;28;20546;-69
2021/07/12 06:29:50;;;;;;;9.83;9.20;;;28.40;99.90;;;;;;4989273;28;20479;-67
2021/07/12 06:32:17;;;;;;;10.20;9.70;;;28.70;99.90;;;;;;4990466;28;20494;-67
2021/07/12 06:34:44;;;;;;;10.00;9.50;;;28.90;99.90;;;;;;4990472;28;20470;-66
2021/07/12 06:37:12;;;;;;;11.03;10.43;;;28.30;99.90;;;;;;4989052;28;20463;-67
2021/07/12 06:39:39;;;;;;;11.00;10.50;;;27.60;99.90;;;;;;4990962;28;20812;-67
2021/07/12 06:42:06;;;;;;;10.83;10.33;;;27.00;99.90;;;;;;4988206;28;20518;-65
2021/07/12 06:44:33;;;;;;;10.60;9.80;;;26.50;99.90;;;;;;4988661;28;20489;-65
2021/07/12 06:46:59;;;;;;;11.10;10.33;;;26.00;99.90;;;;;;4973794;28;20842;-66
2021/07/12 06:49:26;;;;;;;11.10;10.50;;;25.60;99.90;;;;;;4975332;28;20823;-66
2021/07/12 06:51:53;;;;;;;12.37;11.47;;;25.40;99.90;;;;;;4974718;28;21061;-66
2021/07/12 06:54:21;;;;;;;11.80;11.10;;;25.20;99.90;;;;;;4973982;28;20481;-64
2021/07/12 06:56:48;;;;;;;12.30;11.50;;;25.10;99.90;;;;;;4975063;28;20539;-64
2021/07/12 06:59:15;;;;;;;11.23;10.53;;;25.00;99.90;;;;;;4974814;28;20467;-65
2021/07/12 07:01:41;;;;;;;12.67;11.97;;;24.80;99.90;;;;;;4974472;28;20996;-66
2021/07/12 07:04:08;;;;;;;12.10;11.30;;;24.70;99.90;;;;;;4974788;28;20491;-66
2021/07/12 07:06:34;;;;;;;12.47;11.50;;;24.60;99.90;;;;;;4974783;28;20468;-66
2021/07/12 07:09:01;;;;;;;11.57;10.97;;;24.60;99.90;;;;;;4974096;28;20469;-66
2021/07/12 07:11:31;;;;;;;12.30;11.50;;;25.00;99.90;;;;;;4974510;28;20850;-66
2021/07/12 07:13:58;;;;;;;11.57;10.93;;;25.70;99.90;;;;;;4974460;28;20459;-66
2021/07/12 07:16:24;;;;;;;11.30;10.70;;;26.60;99.90;;;;;;4974838;28;20462;-68
2021/07/12 07:18:51;;;;;;;12.00;11.30;;;27.20;99.90;;;;;;4974120;28;20890;-68
2021/07/12 07:21:18;;;;;;;11.43;10.93;;;27.80;99.90;;;;;;4973728;28;20571;-68
2021/07/12 07:23:45;;;;;;;11.03;10.43;;;28.40;99.90;;;;;;4981193;28;20480;-67
2021/07/12 07:26:12;;;;;;;10.87;10.27;;;28.20;99.90;;;;;;4991372;28;20466;-67
2021/07/12 07:28:40;;;;;;;12.10;11.50;;;28.40;99.90;;;;;;4980621;28;20474;-65
2021/07/12 07:31:07;;;;;;;11.10;10.50;;;28.50;99.90;;;;;;4993325;28;20556;-65
2021/07/12 07:33:34;;;;;;;10.57;10.07;;;29.00;99.90;;;;;;4993763;28;20509;-65
2021/07/12 07:36:01;;;;;;;10.50;9.93;;;29.50;99.90;;;;;;4985592;28;20879;-68
2021/07/12 07:38:28;;;;;;;11.30;10.60;;;29.90;99.90;;;;;;4993225;28;20482;-67
2021/07/12 07:40:55;;;;;;;10.70;10.20;;;30.10;99.90;;;;;;4990929;28;20492;-65
2021/07/12 07:43:21;;;;;;;10.87;10.30;;;30.20;99.90;;;;;;4993694;28;20580;-65
2021/07/12 07:45:49;;;;;;;10.70;10.23;;;30.40;99.90;;;;;;4988375;28;20466;-65
2021/07/12 07:48:16;;;;;;;10.67;10.27;;;30.00;99.90;;;;;;4974168;28;20480;-65
2021/07/12 07:50:44;;;;;;;9.57;9.13;;;30.20;99.90;;;;;;4990459;28;20999;-65
2021/07/12 07:53:11;;;;;;;9.63;9.23;;;30.30;99.90;;;;;;4985955;28;20502;-67
2021/07/12 07:55:39;;;;;;;9.10;8.50;;;30.20;99.90;;;;;;4990442;28;20467;-67
2021/07/12 07:58:06;;;;;;;9.50;9.10;;;30.40;99.90;;;;;;4975414;28;20474;-68
2021/07/12 08:00:32;;;;;;;9.00;8.30;;;30.50;99.90;;;;;;4978712;28;20578;-66
2021/07/12 08:03:00;;;;;;;9.17;8.67;;;30.20;99.90;;;;;;4973376;28;20890;-68
2021/07/12 08:05:27;;;;;;;9.20;8.70;;;30.30;99.90;;;;;;4977570;28;20458;-67
2021/07/12 08:07:54;;;;;;;8.20;8.00;;;29.90;99.90;;;;;;4974178;28;21021;-68
2021/07/12 08:10:21;;;;;;;8.60;8.30;;;29.90;99.90;;;;;;4975157;28;20463;-65
2021/07/12 08:12:48;;;;;;;9.47;9.07;;;29.80;99.90;;;;;;4974946;28;20498;-65
2021/07/12 08:15:17;;;;;;;9.70;9.30;;;29.90;99.90;;;;;;4984798;28;20534;-65
2021/07/12 08:17:46;;;;;;;9.00;8.70;;;30.00;99.90;;;;;;4988985;28;20576;-65
2021/07/12 08:20:16;;;;;;;8.10;7.80;;;30.00;99.90;;;;;;4973757;28;20573;-65
2021/07/12 08:22:44;;;;;;;8.20;7.90;;;30.00;99.90;;;;;;4976579;28;20465;-65
2021/07/12 08:25:12;;;;;;;7.80;7.60;;;29.90;99.90;;;;;;4972757;28;20502;-65
2021/07/12 08:27:39;;;;;;;8.37;8.00;;;29.30;99.90;;;;;;4987726;28;20485;-65
2021/07/12 08:30:08;;;;;;;9.33;8.93;;;29.10;99.90;;;;;;4973174;28;20466;-65
2021/07/12 08:32:35;;;;;;;8.60;8.27;;;29.30;99.90;;;;;;4969205;28;20459;-67
2021/07/12 08:35:04;;;;;;;8.43;8.10;;;29.40;99.90;;;;;;4973875;28;20521;-65
2021/07/12 08:37:32;;;;;;;10.00;9.57;;;29.10;99.90;;;;;;4975902;28;20554;-66
2021/07/12 08:39:59;;;;;;;9.13;8.73;;;29.10;99.90;;;;;;4974741;28;20531;-68
2021/07/12 08:42:26;;;;;;;8.90;8.60;;;29.40;99.90;;;;;;4977258;28;20483;-68
2021/07/12 08:44:53;;;;;;;8.80;8.40;;;29.40;99.90;;;;;;4986595;28;20489;-68
2021/07/12 08:47:20;;;;;;;8.13;7.83;;;29.50;99.90;;;;;;4981785;28;20574;-68
2021/07/12 08:49:47;;;;;;;8.40;8.10;;;29.60;99.90;;;;;;4992481;28;20469;-67
2021/07/12 08:52:14;;;;;;;8.00;7.70;;;29.40;99.90;;;;;;4981517;28;20570;-67
2021/07/12 08:54:42;;;;;;;8.30;8.00;;;29.40;99.90;;;;;;4974470;28;20463;-68
2021/07/12 08:57:10;;;;;;;8.70;8.40;;;29.50;99.90;;;;;;4974778;28;20485;-68
2021/07/12 08:59:39;;;;;;;8.57;8.20;;;29.50;99.90;;;;;;4973809;28;20466;-67
2021/07/12 09:02:09;;;;;;;8.67;8.27;;;29.30;99.90;;;;;;4974337;28;20577;-67
2021/07/12 09:04:37;;;;;;;8.17;7.90;;;29.10;99.90;;;;;;4973855;28;21037;-68
2021/07/12 09:07:05;;;;;;;7.37;7.17;;;29.00;99.90;;;;;;4982375;28;20481;-65
2021/07/12 09:09:32;;;;;;;8.00;7.70;;;28.80;99.90;;;;;;4971928;28;20472;-65
2021/07/12 09:12:13;;;;;;;7.40;7.10;;;28.50;99.90;;;;;;4971946;28;21031;-65
2021/07/12 09:14:40;;;;;;;7.50;7.17;;;28.40;99.90;;;;;;4972738;28;20469;-65
2021/07/12 09:17:08;;;;;;;7.23;7.03;;;28.20;99.90;;;;;;4976644;28;20466;-66
2021/07/12 09:19:36;;;;;;;7.17;6.90;;;28.00;99.90;;;;;;4972932;28;20873;-65
2021/07/12 09:22:05;;;;;;;6.97;6.67;;;27.70;99.90;;;;;;4972970;28;20565;-69
2021/07/12 09:24:35;;;;;;;7.20;7.00;;;27.60;99.90;;;;;;4972046;28;20489;-65
2021/07/12 09:27:07;;;;;;;7.20;6.90;;;27.70;99.90;;;;;;4985245;28;20583;-67
2021/07/12 09:29:36;;;;;;;7.43;7.03;;;27.70;99.90;;;;;;4976327;28;20466;-65
2021/07/12 09:32:05;;;;;;;7.87;7.57;;;27.70;99.90;;;;;;4991358;28;20482;-67
2021/07/12 09:34:32;;;;;;;7.57;7.33;;;27.80;99.90;;;;;;4973143;28;20477;-66
2021/07/12 09:36:59;;;;;;;8.17;7.87;;;27.90;99.90;;;;;;4973132;28;20468;-66
2021/07/12 09:39:32;;;;;;;8.10;7.50;;;27.80;99.90;;;;;;4985430;28;20464;-66
2021/07/12 09:42:01;;;;;;;6.73;6.40;;;27.70;99.90;;;;;;4972476;28;20485;-66
2021/07/12 09:44:30;;;;;;;7.80;7.43;;;27.70;99.90;;;;;;4987588;28;20558;-66
2021/07/12 09:47:03;;;;;;;8.17;7.87;;;27.80;99.90;;;;;;4972721;28;20480;-66
2021/07/12 09:49:30;;;;;;;7.63;7.13;;;27.90;99.90;;;;;;4979014;28;20543;-66
2021/07/12 09:51:58;;;;;;;7.60;7.33;;;27.80;99.90;;;;;;4992158;28;20537;-68
2021/07/12 09:54:29;;;;;;;7.37;7.07;;;27.70;99.90;;;;;;4975655;28;20470;-66
2021/07/12 09:56:57;;;;;;;8.20;7.80;;;27.60;99.90;;;;;;4979854;28;20474;-66
2021/07/12 09:59:26;;;;;;;6.70;6.50;;;27.80;99.90;;;;;;4991415;28;20456;-66
2021/07/12 10:01:55;;;;;;;6.87;6.67;;;28.00;99.90;;;;;;4978949;28;20497;-66
2021/07/12 10:04:23;;;;;;;6.70;6.50;;;28.20;99.90;;;;;;4980038;28;20479;-66
2021/07/12 10:06:52;;;;;;;7.37;7.00;;;28.10;99.90;;;;;;4984474;28;20455;-66
2021/07/12 10:09:21;;;;;;;7.23;6.83;;;27.80;99.90;;;;;;4975295;28;20468;-65
2021/07/12 10:11:48;;;;;;;7.80;7.50;;;27.70;99.90;;;;;;4990273;28;20482;-66
2021/07/12 10:14:15;;;;;;;7.23;6.90;;;27.60;99.90;;;;;;4986819;28;20855;-66
2021/07/12 10:16:41;;;;;;;7.43;7.13;;;27.60;99.90;;;;;;4983402;28;20458;-66
2021/07/12 10:19:09;;;;;;;7.57;7.07;;;27.60;99.90;;;;;;4983777;28;20975;-65
2021/07/12 10:21:42;;;;;;;7.13;6.93;;;27.70;99.90;;;;;;4988511;28;20503;-66
2021/07/12 10:24:09;;;;;;;8.70;8.17;;;27.80;99.90;;;;;;4977569;28;20488;-66
2021/07/12 10:26:43;;;;;;;6.90;6.70;;;27.80;99.90;;;;;;4987961;28;20952;-66
2021/07/12 10:29:11;;;;;;;6.97;6.77;;;27.90;99.90;;;;;;4979492;28;20518;-66
2021/07/12 10:31:49;;;;;;;7.40;7.10;;;27.70;99.90;;;;;;4982196;28;20482;-65
2021/07/12 10:34:29;;;;;;;7.40;7.10;;;27.60;99.90;;;;;;4977132;28;20486;-65
2021/07/12 10:37:16;;;;;;;7.40;7.10;;;27.50;99.90;;;;;;4984067;28;20472;-65
2021/07/12 10:40:08;;;;;;;8.10;7.73;;;27.50;99.90;;;;;;4978868;28;20874;-65
2021/07/12 10:42:58;;;;;;;7.17;6.87;;;27.50;99.90;;;;;;4993104;28;20973;-65
2021/07/12 10:45:40;;;;;;;7.10;6.80;;;27.70;99.90;;;;;;4980914;28;20480;-66
2021/07/12 10:48:10;;;;;;;8.70;8.20;;;27.80;99.90;;;;;;4980496;28;20469;-65
2021/07/12 10:50:47;;;;;;;6.97;6.77;;;27.90;99.90;;;;;;4975294;28;20852;-65
2021/07/12 10:53:36;;;;;;;7.63;7.33;;;27.90;99.90;;;;;;4976701;28;20863;-66
2021/07/12 10:56:08;;;;;;;6.83;6.63;;;27.80;99.90;;;;;;4979162;28;20462;-65
2021/07/12 10:58:49;;;;;;;6.90;6.70;;;28.00;99.90;;;;;;4979420;28;20467;-66
2021/07/12 11:01:19;;;;;;;6.43;6.13;;;27.90;99.90;;;;;;4989041;28;20485;-65
2021/07/12 11:03:48;;;;;;;6.47;6.27;;;27.70;99.90;;;;;;4988639;28;20482;-67
2021/07/12 11:06:18;;;;;;;6.77;6.47;;;27.70;99.90;;;;;;4975300;28;20476;-68
2021/07/12 11:08:47;;;;;;;6.70;6.50;;;27.70;99.90;;;;;;4988879;28;20477;-65
2021/07/12 11:11:39;;;;;;;6.57;6.37;;;27.60;99.90;;;;;;4974141;28;20489;-68
2021/07/12 11:14:08;;;;;;;6.60;6.40;;;27.50;99.90;;;;;;4987101;28;20460;-65
2021/07/12 11:16:41;;;;;;;7.00;6.80;;;27.50;99.90;;;;;;4985798;28;20464;-67
2021/07/12 11:19:21;;;;;;;6.43;6.13;;;27.70;99.90;;;;;;4982342;28;20823;-66
2021/07/12 11:21:48;;;;;;;6.80;6.60;;;27.60;99.90;;;;;;4979630;28;20473;-66
2021/07/12 11:24:20;;;;;;;6.70;6.50;;;27.50;99.90;;;;;;4989826;28;20540;-66
2021/07/12 11:26:53;;;;;;;5.77;5.67;;;27.30;99.90;;;;;;4989465;28;20456;-66
2021/07/12 11:29:34;;;;;;;6.43;5.93;;;27.20;99.90;;;;;;4988517;28;20846;-67
2021/07/12 11:32:12;;;;;;;6.38;6.18;;;27.30;99.90;;;;;;4974776;28;20531;-67
2021/07/12 11:34:44;;;;;;;6.70;6.40;;;27.40;99.90;;;;;;4977859;28;20515;-70
2021/07/12 11:37:12;;;;;;;7.00;6.60;;;27.60;99.90;;;;;;4993354;28;20475;-70
2021/07/12 11:39:41;;;;;;;6.10;6.00;;;28.00;99.90;;;;;;4985328;28;20535;-70
2021/07/12 11:42:18;;;;;;;7.20;6.90;;;28.00;99.90;;;;;;4988388;28;21060;-70
2021/07/12 11:44:50;;;;;;;6.33;6.20;;;27.90;99.90;;;;;;4985472;28;20535;-69
2021/07/12 11:47:18;;;;;;;6.30;6.10;;;27.70;99.90;;;;;;4974181;28;20567;-70
2021/07/12 11:49:57;;;;;;;6.57;6.20;;;27.60;99.90;;;;;;4981134;28;20460;-70
2021/07/12 11:52:25;;;;;;;7.00;6.70;;;27.60;99.90;;;;;;4992873;28;20979;-70
2021/07/12 11:55:03;;;;;;;6.00;5.90;;;27.80;99.90;;;;;;4989102;28;20458;-70
2021/07/12 11:57:32;;;;;;;6.40;6.10;;;28.30;99.90;;;;;;4991372;28;20873;-70
2021/07/12 11:59:58;;;;;;;6.07;5.93;;;28.50;99.90;;;;;;4992681;28;20512;-68
2021/07/12 12:02:25;;;;;;;6.40;6.10;;;28.60;99.90;;;;;;4992795;28;20564;-67
2021/07/12 12:04:55;;;;;;;6.47;6.17;;;28.40;99.90;;;;;;4985112;28;20492;-68
2021/07/12 12:07:28;;;;;;;7.57;7.17;;;28.40;99.90;;;;;;4974445;28;20584;-68
2021/07/12 12:09:57;;;;;;;5.87;5.77;;;28.50;99.90;;;;;;4978533;28;20615;-67
2021/07/12 12:12:27;;;;;;;6.73;6.53;;;28.60;99.90;;;;;;4973864;28;20488;-68
2021/07/12 12:15:07;;;;;;;6.83;6.53;;;28.70;99.90;;;;;;4973509;28;20872;-68
2021/07/12 12:17:38;;;;;;;5.60;5.40;;;28.80;99.90;;;;;;4973432;28;20530;-69
2021/07/12 12:20:27;;;;;;;6.47;6.27;;;28.70;99.90;;;;;;4983403;28;20826;-68
2021/07/12 12:23:12;;;;;;;6.37;6.17;;;28.30;99.90;;;;;;4978358;28;20841;-69
2021/07/12 12:25:58;;;;;;;5.50;5.30;;;28.10;99.90;;;;;;4988922;28;20511;-69
2021/07/12 12:28:30;;;;;;;7.13;6.90;;;28.00;99.90;;;;;;4973854;28;20511;-69
2021/07/12 12:31:01;;;;;;;6.30;6.20;;;27.90;99.90;;;;;;4974395;28;20519;-67
2021/07/12 12:33:30;;;;;;;7.00;6.40;;;28.00;99.90;;;;;;4987297;28;20953;-67
2021/07/12 12:36:03;;;;;;;7.07;6.77;;;28.10;99.90;;;;;;4987635;28;20462;-67
2021/07/12 12:38:31;;;;;;;6.77;6.57;;;28.30;99.90;;;;;;4988303;28;21004;-68
2021/07/12 12:41:04;;;;;;;6.80;6.70;;;28.30;99.90;;;;;;4989863;28;20858;-66
2021/07/12 12:43:31;;;;;;;6.30;6.20;;;28.50;99.90;;;;;;4984961;28;20515;-66
2021/07/12 12:46:03;;;;;;;6.90;6.70;;;28.50;99.90;;;;;;4986175;28;20489;-70
2021/07/12 12:48:37;;;;;;;7.20;6.90;;;28.50;99.90;;;;;;4974805;28;20974;-67
2021/07/12 12:51:25;;;;;;;7.13;6.93;;;28.30;99.90;;;;;;4980214;28;21031;-68
2021/07/12 12:54:11;;;;;;;8.33;7.83;;;28.10;99.90;;;;;;4973293;28;20465;-68
2021/07/12 12:56:46;;;;;;;8.67;8.27;;;28.10;99.90;;;;;;4984979;28;20807;-70
2021/07/12 12:59:13;;;;;;;7.80;7.37;;;28.00;99.90;;;;;;4991125;28;20484;-67
2021/07/12 13:01:43;;;;;;;7.60;7.33;;;27.80;99.90;;;;;;4976968;28;20896;-67
2021/07/12 13:04:15;;;;;;;7.80;7.37;;;27.60;99.90;;;;;;4973863;28;20943;-67
2021/07/12 13:06:49;;;;;;;7.80;7.33;;;27.60;99.90;;;;;;4973484;28;21011;-67
2021/07/12 13:09:25;;;;;;;7.70;7.40;;;27.40;99.90;;;;;;4981951;28;20813;-67
2021/07/12 13:12:06;;;;;;;7.43;7.13;;;27.20;99.90;;;;;;4984919;28;20474;-67
2021/07/12 13:14:32;;;;;;;8.00;7.57;;;27.10;99.90;;;;;;4972445;28;20471;-67
2021/07/12 13:17:06;;;;;;;7.17;6.87;;;27.20;99.90;;;;;;4973135;28;20518;-67
2021/07/12 13:19:33;;;;;;;7.73;7.43;;;27.20;99.90;;;;;;4972664;28;20483;-67
2021/07/12 13:21:59;;;;;;;6.23;6.03;;;27.20;99.90;;;;;;4969914;28;20491;-68
2021/07/12 13:24:46;;;;;;;6.43;6.33;;;27.30;99.90;;;;;;4971624;28;20592;-67
2021/07/12 13:27:26;;;;;;;7.30;7.00;;;27.40;99.90;;;;;;4972607;28;20464;-67
2021/07/12 13:29:53;;;;;;;7.40;7.10;;;27.50;99.90;;;;;;4972752;28;20480;-67
2021/07/12 13:32:21;;;;;;;7.93;7.63;;;27.50;99.90;;;;;;4972939;28;20550;-67
2021/07/12 13:34:56;;;;;;;7.60;7.40;;;27.40;99.90;;;;;;4976062;28;20459;-67
2021/07/12 13:37:23;;;;;;;7.40;7.20;;;27.30;99.90;;;;;;4976619;28;20467;-67
2021/07/12 13:39:50;;;;;;;9.07;8.67;;;27.10;99.90;;;;;;4977144;28;20472;-68
2021/07/12 13:42:17;;;;;;;8.60;8.10;;;26.70;99.90;;;;;;4980877;28;20851;-68
2021/07/12 13:44:44;;;;;;;9.67;9.17;;;26.20;99.90;;;;;;4977375;28;20506;-67
2021/07/12 13:47:12;;;;;;;9.60;9.20;;;26.00;99.90;;;;;;4985756;28;20852;-68
2021/07/12 13:49:40;;;;;;;9.23;8.80;;;26.00;99.90;;;;;;4986183;28;20962;-67
2021/07/12 13:52:07;;;;;;;9.00;8.60;;;26.00;99.90;;;;;;4982951;28;20479;-68
2021/07/12 13:54:34;;;;;;;9.23;8.83;;;26.10;99.90;;;;;;4975031;28;20471;-68
2021/07/12 13:57:02;;;;;;;9.37;8.87;;;26.20;99.90;;;;;;4987025;28;20517;-67
2021/07/12 13:59:28;;;;;;;8.57;8.17;;;26.20;99.90;;;;;;4994687;28;20562;-67
2021/07/12 14:01:55;;;;;;;8.20;7.90;;;26.30;99.90;;;;;;4986104;28;20542;-67
2021/07/12 14:04:22;;;;;;;7.83;7.53;;;26.50;99.90;;;;;;4976623;28;20463;-68
2021/07/12 14:06:50;;;;;;;8.10;7.80;;;26.80;99.90;;;;;;4984330;28;20482;-67
2021/07/12 14:09:16;;;;;;;8.57;8.07;;;27.10;99.90;;;;;;4988250;28;20537;-67
2021/07/12 14:11:43;;;;;;;8.23;7.83;;;27.40;99.90;;;;;;4982379;28;20602;-68
2021/07/12 14:14:10;;;;;;;8.73;8.43;;;27.80;99.90;;;;;;4980014;28;20501;-69
2021/07/12 14:16:36;;;;;;;7.10;6.80;;;28.00;99.90;;;;;;4976955;28;20455;-69
2021/07/12 14:19:03;;;;;;;8.00;7.70;;;28.20;99.90;;;;;;4980668;28;20555;-68
2021/07/12 14:21:30;;;;;;;7.60;7.30;;;28.20;99.90;;;;;;4985435;28;20588;-69
2021/07/12 14:23:58;;;;;;;7.50;7.20;;;28.20;99.90;;;;;;4985946;28;20466;-69
2021/07/12 14:26:24;;;;;;;6.47;6.27;;;28.30;99.90;;;;;;4983300;28;20535;-69
2021/07/12 14:28:53;;;;;;;6.03;5.83;;;28.30;99.90;;;;;;4993070;28;20464;-67
2021/07/12 14:31:20;;;;;;;6.90;6.70;;;28.00;99.90;;;;;;4978359;28;20489;-67
2021/07/12 14:33:47;;;;;;;6.70;6.50;;;27.80;99.90;;;;;;4980782;28;20471;-68
2021/07/12 14:36:15;;;;;;;7.20;6.90;;;27.50;99.90;;;;;;4984857;28;20467;-69
2021/07/12 14:38:42;;;;;;;8.30;7.90;;;27.30;99.90;;;;;;4989091;28;20526;-68
2021/07/12 14:41:10;;;;;;;7.70;7.40;;;27.20;99.90;;;;;;4984850;28;20475;-68
2021/07/12 14:43:37;;;;;;;7.10;6.80;;;26.90;99.90;;;;;;4978834;28;20499;-68
2021/07/12 14:46:05;;;;;;;7.93;7.63;;;26.90;99.90;;;;;;4991466;28;20490;-69
2021/07/12 14:48:31;;;;;;;8.27;7.87;;;27.00;99.90;;;;;;4986446;28;20464;-69
2021/07/12 14:51:00;;;;;;;7.67;7.27;;;26.90;99.90;;;;;;4975415;28;20483;-67
2021/07/12 14:53:27;;;;;;;7.43;7.23;;;26.80;99.90;;;;;;4982633;28;20484;-69
2021/07/12 14:55:54;;;;;;;7.20;7.00;;;26.80;99.90;;;;;;4994507;28;20477;-69
2021/07/12 14:58:22;;;;;;;7.40;7.10;;;26.90;99.90;;;;;;4990277;28;20545;-68
2021/07/12 15:00:51;;;;;;;7.17;6.87;;;27.20;99.90;;;;;;4986154;28;20493;-67
2021/07/12 15:03:17;;;;;;;7.60;7.30;;;27.30;99.90;;;;;;4978021;28;20483;-68
2021/07/12 15:05:44;;;;;;;8.27;7.97;;;27.20;99.90;;;;;;4978794;28;20488;-68
2021/07/12 15:08:11;;;;;;;7.27;6.97;;;27.10;99.90;;;;;;4974672;28;20464;-66
2021/07/12 15:10:39;;;;;;;7.70;7.40;;;27.10;99.90;;;;;;4979270;28;20892;-66
2021/07/12 15:13:06;;;;;;;8.13;7.80;;;27.00;99.90;;;;;;4985777;28;20779;-67
2021/07/12 15:15:34;;;;;;;8.20;7.60;;;27.00;99.90;;;;;;4975836;28;20558;-67
2021/07/12 15:18:00;;;;;;;7.33;7.00;;;27.00;99.90;;;;;;4986409;28;20528;-67
2021/07/12 15:20:27;;;;;;;7.57;7.27;;;26.90;99.90;;;;;;4975072;28;20554;-67
2021/07/12 15:22:54;;;;;;;7.57;7.27;;;26.90;99.90;;;;;;4975363;28;20467;-67
2021/07/12 15:25:21;;;;;;;7.90;7.40;;;26.90;99.90;;;;;;4973528;28;21000;-67
2021/07/12 15:27:48;;;;;;;7.90;7.50;;;26.80;99.90;;;;;;4978305;28;20468;-67
2021/07/12 15:30:15;;;;;;;8.30;7.90;;;26.60;99.90;;;;;;4976143;28;20472;-67
2021/07/12 15:32:44;;;;;;;8.20;7.80;;;26.60;99.90;;;;;;4975699;28;20472;-67
2021/07/12 15:35:12;;;;;;;8.80;8.40;;;26.60;99.90;;;;;;4980939;28;20515;-67
2021/07/12 15:37:40;;;;;;;7.87;7.57;;;26.60;99.90;;;;;;4975934;28;21042;-67
2021/07/12 15:40:08;;;;;;;9.27;8.87;;;26.70;99.90;;;;;;4977140;28;20471;-67
2021/07/12 15:42:35;;;;;;;8.33;8.03;;;26.80;99.90;;;;;;4971484;28;20534;-67
2021/07/12 15:45:01;;;;;;;8.93;8.53;;;26.80;99.90;;;;;;4990668;28;20536;-67
2021/07/12 15:47:28;;;;;;;9.10;8.60;;;26.90;99.90;;;;;;4987186;28;20475;-66
2021/07/12 15:49:56;;;;;;;8.50;8.20;;;26.80;99.90;;;;;;4987004;28;20497;-68
2021/07/12 15:52:23;;;;;;;8.53;8.20;;;26.80;99.90;;;;;;4993018;28;20487;-66
2021/07/12 15:54:51;;;;;;;8.80;8.40;;;26.90;99.90;;;;;;4980848;28;20472;-66
2021/07/12 15:57:18;;;;;;;7.47;7.17;;;26.90;99.90;;;;;;4985526;28;20459;-67
2021/07/12 15:59:45;;;;;;;8.37;8.10;;;27.00;99.90;;;;;;4983330;28;20468;-67
2021/07/12 16:02:12;;;;;;;8.50;8.10;;;27.10;99.90;;;;;;4973416;28;20496;-66
2021/07/12 16:04:39;;;;;;;7.90;7.60;;;27.00;99.90;;;;;;4973427;28;20511;-67
2021/07/12 16:07:09;;;;;;;7.80;7.50;;;27.00;99.90;;;;;;4973348;28;20500;-66
2021/07/12 16:09:35;;;;;;;8.03;7.70;;;26.90;99.90;;;;;;4977887;28;20482;-66
2021/07/12 16:12:02;;;;;;;8.43;7.93;;;26.90;99.90;;;;;;4973676;28;20534;-67
2021/07/12 16:14:30;;;;;;;7.90;7.60;;;26.90;99.90;;;;;;4985065;28;20467;-67
2021/07/12 16:16:58;;;;;;;8.50;8.20;;;26.90;99.90;;;;;;4973394;28;20515;-67
2021/07/12 16:19:25;;;;;;;8.50;8.10;;;26.90;99.90;;;;;;4979878;28;20484;-67
2021/07/12 16:21:53;;;;;;;8.30;8.00;;;27.00;99.90;;;;;;4971735;28;20486;-67
2021/07/12 16:24:23;;;;;;;8.67;8.27;;;27.10;99.90;;;;;;4978897;28;20475;-67
2021/07/12 16:26:51;;;;;;;8.93;8.50;;;27.10;99.90;;;;;;4974010;28;20480;-68
2021/07/12 16:29:19;;;;;;;8.80;8.40;;;27.10;99.90;;;;;;4974271;28;20939;-67
2021/07/12 16:31:45;;;;;;;8.23;7.93;;;27.00;99.90;;;;;;4974261;28;21010;-66
2021/07/12 16:34:13;;;;;;;9.40;9.00;;;27.10;99.90;;;;;;4973852;28;20503;-68
2021/07/12 16:36:40;;;;;;;8.87;8.40;;;27.00;99.90;;;;;;4976345;28;20456;-66
2021/07/12 16:39:09;;;;;;;8.50;8.10;;;27.00;99.90;;;;;;4991269;28;20463;-68
2021/07/12 16:41:37;;;;;;;9.07;8.57;;;27.00;99.90;;;;;;4987786;28;20499;-66
2021/07/12 16:44:05;;;;;;;9.87;9.37;;;26.90;99.90;;;;;;4982252;28;20504;-67
2021/07/12 16:46:33;;;;;;;9.30;8.90;;;26.80;99.90;;;;;;4984883;28;20484;-66
2021/07/12 16:49:00;;;;;;;8.80;8.40;;;26.90;99.90;;;;;;4973495;28;20464;-67
2021/07/12 16:51:27;;;;;;;8.40;8.00;;;27.00;99.90;;;;;;4985022;28;20997;-67
2021/07/12 16:53:53;;;;;;;9.20;8.80;;;27.00;99.90;;;;;;4976643;28;20823;-67